Pagrindinis puslapis
METAR-TAF:

METAR-TAF

Oro uostai :

Erebru, Švedija

platuma: 59-14N, ilguma: 015-03E, Aukštis: 57 m

Dabartinis oras

Ataskaita buvo paskelbta 20 minutes, ne 22:20 UTC
Vėjas 6 kt iš Šiaurės Rytų
Temperatūra 12°C
Drėgmė 100%
Slėgis 1012 hPa
Matomumas 10 km arba daugiau

METAR: ESOE 162220Z AUTO 05006KT 9999 BKN088/// 12/12 Q1012

Laikas: 00:40 (22:40 UTC)

Prognozė

Ataskaita buvo paskelbta 10 minutes, ne 22:30 UTC
Prognozė galioja nuo 16 metu 23 UTC su 17 metu 06 UTC
Vėjas 6 kt iš Šiaurės Rytų
Matomumas 10 km arba daugiau
nėra debesų žemiau 1500 m ir nėra kamuolinių lietaus debesų
Tikimybė 40%
nuo 16 metu 23 UTC su 17 metu 02 UTC
Matomumas: 4000 m
rūkana,

TAF: ESOE 162230Z 1623/1706 05006KT CAVOK PROB40 1623/1702 4000 BR

Orai ataskaitas ir orų prognozės (METAR, TAF).

turimą stotys yra geltonos ir raudonos taškus žemėlapyje.

Perkelti pele per norėdami pamatyti stoties vardą.

Tada spustelėkite, norėdami matyti oro stebėjimo ir prognozės.

Norėdami pakeisti žemėlapį: spustelėkite ant žalios mygtukų su juodo kryžiaus žemyn,; žalią mygtuką su brūkšneliu, jei norite nutolinti; arba žalių rodyklių gretimoms žemėlapius.


METAR-TAF: